Patch Leg, Louisiana
Current Conditions -  °F | °C
As of 3:55 PM on Thursday 27 Nov 2014 (Local Time) from KIER Reporting Station
Haze Haze  
Wind Chill: 59°   Ceiling: Unl
Heat Index: 59°   Visibility: 2.5mi
Dew Point: 31°   Wind: 5mph
Humidity: 35%   Direction: 20°NNE
Pressure: 30.44"   Gusts: NA
Location:  31.6668°N, 92.8023°W
Report Text: KIER 272155Z AUTO 02004KT 2 1/2SM HZ CLR 15/M01 A3044 RMK AO2 T01501006
Loading
Personal Weather Stations






























Interactive Weather Map New forecast layout! Learn more

10-Day Weather Forecast

Advertisements
Track Severe Weather on mobile